Terminal Aerodrome Forecast
Issued by NWS

Home | Current Version | Previous Version | Text Only | Print | Product List | Glossary On
Versions: 1 2 3 4 5 6 7 8 9 10 11 12 13 14 15 16 17 18 19 20 21 22 23 24 25 26 27 28 29 30 31 32 33 34 35 36 37 38
398
FTUS46 KEKA 211425 CCF
TAFCEC
TAF COR
KCEC 211425Z 2112/2212 23010KT P6SM -SHRA BKN025 BKN040 OVC050
     FM211800 20012KT 6SM -SHRA VCTS BKN015 OVC035CB
     FM212200 19010KT 6SM -SHRA VCTS BKN025CB
     FM220100 17006KT 6SM BR VCTS BKN035CB
     FM220500 18005KT P6SM OVC050=

USA.gov is the U.S. government's official web portal to all federal, state and local government web resources and services.